Date,TemperatureHighF,TemperatureAvgF,TemperatureLowF,DewpointHighF,DewpointAvgF,DewpointLowF,HumidityHigh,HumidityAvg,HumidityLow,PressureMaxIn,PressureMinIn,WindSpeedMaxMPH,WindSpeedAvgMPH,GustSpeedMaxMPH,PrecipitationSumIn
2013-1-1,75,65,54,68,62,53,100,91,72,0.00,40.00,7,4,17,0.07
2013-1-2,55,50,43,54,46,42,98,89,77,0.00,40.00,3,3,11,0.07
2013-1-3,50,41,32,43,36,29,99,85,48,0.00,40.00,4,2,11,0.51
2013-1-4,61,42,30,39,31,26,97,71,28,0.00,40.00,4,2,11,0.01
2013-1-5,51,45,35,38,36,33,98,71,53,0.00,40.00,3,2,7,0.00
2013-1-6,52,46,40,48,43,38,99,89,66,0.00,40.00,4,2,9,0.16
2013-1-7,64,46,33,45,38,33,99,79,32,0.00,40.00,5,2,11,0.03
2013-1-8,66,55,42,59,50,40,96,85,71,0.00,40.00,4,2,10,0.00
2013-1-9,70,65,61,67,63,57,100,92,85,0.00,40.00,5,4,12,0.00
2013-1-10,75,67,62,70,66,61,100,95,82,0.00,40.00,6,4,17,0.20
2013-1-11,79,70,61,70,66,61,99,90,70,0.00,40.00,6,3,14,0.05
2013-1-12,80,72,68,71,68,66,100,90,71,0.00,40.00,7,4,16,0.00
2013-1-13,77,71,58,71,68,57,98,91,81,0.00,40.00,7,5,21,0.15
2013-1-14,57,51,42,57,50,42,99,99,98,0.00,40.00,3,3,12,0.25
2013-1-15,57,50,42,57,50,42,100,99,94,0.00,40.00,4,2,9,0.18
2013-1-16,51,46,40,51,44,38,100,95,88,0.00,40.00,4,3,11,0.22
2013-1-17,55,42,35,38,34,31,98,77,43,0.00,40.00,7,4,21,0.05
2013-1-18,62,44,33,40,36,32,98,77,39,0.00,40.00,5,2,11,0.00
2013-1-19,67,47,32,49,40,32,100,80,43,0.00,40.00,4,1,10,0.00
2013-1-20,70,49,34,55,42,34,99,82,35,0.00,40.00,4,1,12,0.00
2013-1-21,69,51,37,49,42,37,100,78,37,0.00,40.00,4,1,12,0.00
2013-1-22,65,46,36,43,34,27,98,70,32,0.00,40.00,5,2,10,0.00
2013-1-23,69,50,32,49,42,32,99,78,42,0.00,40.00,6,2,13,0.00
2013-1-24,74,56,38,58,50,38,99,83,52,0.00,40.00,6,2,13,0.00
2013-1-25,73,58,43,59,52,43,99,82,54,0.00,40.00,9,3,18,0.00
2013-1-26,75,60,50,63,57,50,100,91,59,0.00,40.00,4,2,9,0.00
2013-1-27,75,58,45,62,54,45,100,89,56,0.00,40.00,5,2,12,0.00
2013-1-28,78,64,51,67,60,51,100,87,56,0.00,40.00,6,2,12,0.00
2013-1-29,75,70,68,71,68,66,99,93,81,0.00,40.00,7,5,16,0.09
2013-1-30,73,62,43,70,57,31,98,85,58,0.00,40.00,11,6,26,0.93
2013-1-31,64,52,34,41,32,25,98,56,23,0.00,40.00,5,3,12,0.01
2013-2-1,64,45,34,42,36,32,99,76,32,0.00,40.00,5,1,11,0.00
2013-2-2,67,47,28,53,39,28,99,79,33,0.00,40.00,6,2,14,0.00
2013-2-3,73,54,39,55,41,29,99,73,22,0.00,40.00,5,2,13,0.00
2013-2-4,64,50,37,53,44,37,100,83,45,0.00,40.00,3,1,6,0.11
2013-2-5,70,59,50,61,57,50,100,93,74,0.00,40.00,4,2,9,0.62
2013-2-6,75,60,50,63,56,50,100,88,52,0.00,40.00,5,2,11,0.03
2013-2-7,80,64,50,62,58,49,100,84,53,0.00,40.00,7,3,14,1.78
2013-2-8,77,60,47,61,54,47,100,83,53,0.00,40.00,6,2,11,0.02
2013-2-9,68,54,43,54,48,41,99,81,60,0.00,40.00,4,3,11,0.00
2013-2-10,71,66,54,70,63,53,99,91,79,0.00,40.00,9,5,25,0.07
2013-2-11,71,62,56,69,61,56,99,96,83,0.00,40.00,5,2,14,0.62
2013-2-12,70,60,55,69,60,54,100,98,95,0.00,40.00,8,4,17,0.19
2013-2-13,69,52,40,67,50,38,99,94,83,0.00,40.00,6,3,13,0.25
2013-2-14,64,46,35,45,38,34,99,81,37,0.00,40.00,4,1,10,0.01
2013-2-15,71,48,32,52,38,29,99,76,22,0.00,40.00,4,1,11,0.00
2013-2-16,58,47,28,40,28,15,89,54,21,0.00,40.00,7,3,21,0.00
2013-2-17,59,40,25,34,27,22,98,68,25,0.00,40.00,5,2,11,0.00
2013-2-18,66,51,32,59,43,32,99,78,44,0.00,40.00,0,0,0,0.03
2013-2-19,71,60,40,61,46,25,99,68,21,0.00,40.00,1,0,4,0.67
2013-2-20,62,46,35,36,29,21,97,57,23,0.00,40.00,4,1,7,0.00
2013-2-21,67,56,35,65,48,33,98,78,55,0.00,40.00,0,0,1,0.00
2013-2-22,71,64,58,68,59,50,99,86,47,0.00,40.00,0,0,0,1.08
2013-2-23,59,57,55,58,56,49,99,96,87,0.00,40.00,0,0,0,0.90
2013-2-24,72,58,44,57,51,44,99,82,55,0.00,40.00,0,0,0,0.32
2013-2-25,67,62,58,67,61,58,99,96,87,0.00,40.00,0,0,0,5.31
2013-2-26,64,54,46,63,43,36,97,68,40,0.00,40.00,0,0,0,2.59
2013-2-27,67,52,42,50,44,39,99,78,36,0.00,40.00,0,0,0,0.00
2013-2-28,62,48,36,45,37,29,98,69,33,0.00,40.00,0,0,0,0.00
2013-3-1,62,47,35,38,32,26,98,63,29,0.00,40.00,0,0,0,0.00
2013-3-2,50,38,28,32,27,23,97,67,41,0.00,40.00,3,1,6,0.00
2013-3-3,58,39,24,32,24,18,97,61,21,0.00,40.00,3,1,9,0.00
2013-3-4,66,50,29,53,41,29,98,76,48,0.00,40.00,1,0,2,0.00
2013-3-5,77,64,44,63,53,39,83,70,50,0.00,40.00,1,0,1,0.00
2013-3-6,65,47,31,39,31,25,96,60,24,0.00,40.00,6,2,19,0.00
2013-3-7,69,47,32,41,35,31,97,69,24,0.00,40.00,5,2,11,0.00
2013-3-8,75,52,34,45,37,27,98,68,17,0.00,40.00,5,2,10,0.00
2013-3-9,71,57,41,58,49,40,99,78,39,0.00,40.00,6,3,15,0.00
2013-3-10,76,68,61,63,60,58,89,78,62,0.00,40.00,8,6,20,0.00
2013-3-11,66,56,42,65,52,39,98,88,64,0.00,40.00,7,3,20,0.39
2013-3-12,71,51,36,42,38,35,99,70,28,0.00,40.00,5,2,12,0.01
2013-3-13,70,52,36,48,32,20,98,57,15,0.00,40.00,5,2,23,0.00
2013-3-14,71,49,35,41,29,19,88,54,18,0.00,40.00,5,2,13,0.00
2013-3-15,73,55,36,53,42,35,98,70,30,0.00,40.00,8,3,16,0.00
2013-3-16,76,59,40,58,50,39,98,75,39,0.00,40.00,9,3,22,0.00
2013-3-17,77,60,47,70,56,46,99,88,51,0.00,40.00,6,2,17,0.07
2013-3-18,82,70,61,69,64,59,98,84,57,0.00,40.00,7,4,19,0.07
2013-3-19,81,66,53,68,52,45,98,68,30,0.00,40.00,5,3,12,0.03
2013-3-20,70,56,40,47,38,28,90,54,23,0.00,40.00,5,2,13,0.00
2013-3-21,70,50,36,44,34,25,96,62,20,0.00,40.00,4,2,10,0.00
2013-3-22,71,57,43,62,51,42,99,82,54,0.00,40.00,7,3,19,0.11
2013-3-23,77,68,60,71,64,56,99,88,72,0.00,40.00,7,3,16,0.14
2013-3-24,78,67,49,70,55,31,98,70,32,0.00,40.00,10,5,23,0.09
2013-3-25,62,47,33,32,26,17,88,50,18,0.00,40.00,8,4,22,0.01
2013-3-26,61,43,28,33,26,21,95,58,24,0.00,40.00,6,2,18,0.00
2013-3-27,67,44,27,34,29,23,96,65,19,0.00,40.00,5,2,11,0.00
2013-3-28,74,60,42,42,38,30,95,51,20,0.00,40.00,6,3,13,0.00
2013-3-29,71,54,35,55,44,34,98,74,27,0.00,40.00,8,2,16,0.00
2013-3-30,75,60,44,63,51,44,99,76,39,0.00,40.00,8,3,16,0.00
2013-3-31,80,62,49,68,58,49,99,86,55,0.00,40.00,7,3,18,0.43
2013-4-1,79,62,53,61,56,50,99,84,42,0.00,40.00,4,2,11,0.43
2013-4-2,81,62,43,60,50,43,99,72,28,0.00,40.00,5,2,13,0.01
2013-4-3,63,58,53,59,56,50,99,93,84,0.00,40.00,10,2,20,2.11
2013-4-4,68,58,52,58,53,49,98,85,67,0.00,40.00,6,3,11,0.12
2013-4-5,74,57,47,51,47,44,95,74,38,0.00,40.00,5,3,12,0.00
2013-4-6,75,57,39,58,45,38,99,72,29,0.00,40.00,6,2,17,0.00
2013-4-7,79,60,42,62,52,42,99,79,43,0.00,40.00,8,2,14,0.00
2013-4-8,81,67,52,68,60,52,99,82,53,0.00,40.00,7,3,16,0.00
2013-4-9,82,74,68,71,68,63,98,82,56,0.00,40.00,8,5,18,0.00
2013-4-10,81,74,67,70,67,66,98,81,61,0.00,40.00,7,4,17,0.00
2013-4-11,81,70,58,72,67,55,98,90,73,0.00,40.00,8,5,21,1.48
2013-4-12,78,62,49,55,49,45,93,68,31,0.00,40.00,5,2,13,0.26
2013-4-13,83,63,44,59,49,43,99,70,26,0.00,40.00,4,2,11,0.00
2013-4-14,69,61,56,64,59,55,99,93,74,0.00,40.00,4,2,20,1.66
2013-4-15,80,71,64,74,67,63,99,89,71,0.00,40.00,5,2,12,0.01
2013-4-16,85,75,66,73,70,64,98,85,63,0.00,40.00,5,3,12,0.00
2013-4-17,86,74,65,72,68,64,99,86,62,0.00,40.00,5,3,13,0.00
2013-4-18,80,72,65,72,68,64,99,87,69,0.00,40.00,6,4,15,0.00
2013-4-19,75,56,42,72,54,39,98,94,81,0.00,40.00,6,3,27,1.38
2013-4-20,73,53,37,53,40,37,99,70,28,0.00,40.00,5,2,13,0.04
2013-4-21,77,58,40,52,44,39,99,69,30,0.00,40.00,5,2,15,0.00
2013-4-22,83,62,47,62,55,46,99,81,45,0.00,40.00,5,2,11,0.00
2013-4-23,80,66,53,70,60,53,99,83,57,0.00,40.00,5,2,13,0.00
2013-4-24,74,66,59,69,64,58,99,95,80,0.00,40.00,5,2,19,0.50
2013-4-25,77,63,54,59,54,49,98,78,44,0.00,40.00,5,2,13,0.03
2013-4-26,83,65,49,61,52,47,97,68,34,0.00,40.00,5,2,11,0.00
2013-4-27,82,69,57,67,62,56,99,79,52,0.00,40.00,6,2,14,0.00
2013-4-28,80,69,61,72,66,60,99,91,67,0.00,40.00,5,2,15,0.06
2013-4-29,85,72,63,69,65,61,99,81,52,0.00,40.00,3,2,10,0.02
2013-4-30,81,70,59,69,66,59,99,87,67,0.00,40.00,5,2,18,2.87
2013-5-1,75,68,63,73,67,63,99,96,80,0.00,40.00,5,2,18,7.54
2013-5-2,74,66,62,67,64,62,100,93,73,0.00,40.00,5,2,10,1.86
2013-5-3,78,64,49,68,62,46,99,92,69,0.00,40.00,6,3,14,1.64
2013-5-4,74,57,41,48,42,35,98,67,26,0.00,40.00,5,3,17,0.12
2013-5-5,67,58,45,55,46,40,99,70,38,0.00,40.00,7,3,17,0.00
2013-5-6,74,58,44,57,48,43,98,74,40,0.00,40.00,9,3,16,0.00
2013-5-7,79,62,49,61,55,48,99,82,45,0.00,40.00,5,1,12,0.00
2013-5-8,82,68,52,70,58,51,99,75,39,0.00,40.00,5,2,13,0.00
2013-5-9,83,69,56,73,60,56,99,78,44,0.00,40.00,5,2,14,0.00
2013-5-10,74,67,63,68,63,-100,99,93,71,0.00,40.00,7,3,16,0.57
2013-5-11,78,67,59,69,64,59,99,91,72,0.00,40.00,4,2,11,0.47
2013-5-12,82,69,59,66,60,55,99,75,45,0.00,40.00,4,2,14,0.02
2013-5-13,83,66,49,56,50,40,99,65,26,0.00,40.00,5,2,13,0.00
2013-5-14,85,67,49,62,53,48,98,68,32,0.00,40.00,6,2,12,0.00
2013-5-15,86,68,53,69,56,50,99,72,32,0.00,40.00,4,1,12,0.00
2013-5-16,83,68,61,70,45,-100,98,82,53,0.00,40.00,7,3,16,0.00
2013-5-17,85,75,63,73,63,-100,99,81,56,0.00,40.00,7,3,15,0.00
2013-5-18,89,78,70,76,71,69,98,81,54,0.00,40.00,5,3,15,0.00
2013-5-19,83,76,66,77,72,66,99,88,70,0.00,40.00,4,2,14,0.00
2013-5-20,89,78,69,75,71,68,99,82,50,0.00,40.00,5,3,14,0.00
2013-5-21,87,76,64,75,69,64,99,80,55,0.00,40.00,5,2,12,0.00
2013-5-22,83,71,63,72,67,63,99,90,58,0.00,40.00,3,1,14,0.16
2013-5-23,91,77,61,79,68,61,99,78,41,0.00,40.00,5,2,11,0.12
2013-5-24,91,78,65,72,67,60,99,72,43,0.00,40.00,3,2,11,0.00
2013-5-25,91,71,54,64,56,51,97,67,27,0.00,40.00,4,2,10,0.00
2013-5-26,88,73,57,68,61,56,99,72,36,0.00,40.00,5,2,10,0.00
2013-5-27,86,75,63,74,65,56,99,75,37,0.00,40.00,6,2,14,0.00
2013-5-28,87,73,56,71,64,56,99,78,49,0.00,40.00,5,2,12,0.00
2013-5-29,87,76,65,75,70,65,99,82,62,0.00,40.00,6,3,15,0.00
2013-5-30,85,77,68,76,71,67,99,83,63,0.00,40.00,6,3,16,0.00
2013-5-31,86,78,71,77,73,69,97,87,69,0.00,40.00,7,3,15,0.04
2013-6-1,86,77,70,78,73,69,99,88,71,0.00,40.00,5,2,14,0.12
2013-6-2,92,78,68,74,70,66,99,80,43,0.00,40.00,5,2,12,0.01
2013-6-3,93,78,67,76,72,67,99,83,54,0.00,40.00,4,2,10,0.01
2013-6-4,92,79,69,77,72,68,99,81,53,0.00,40.00,4,2,9,0.00
2013-6-5,89,78,70,77,72,66,99,83,59,0.00,40.00,5,2,10,0.02
2013-6-6,92,75,63,71,67,63,99,81,47,0.00,40.00,4,2,16,0.02
2013-6-7,90,75,66,72,68,65,99,81,46,0.00,40.00,6,2,13,0.02
2013-6-8,89,78,66,74,70,65,99,80,54,0.00,40.00,6,2,15,0.16
2013-6-9,83,74,68,76,71,67,99,90,69,0.00,40.00,5,2,12,0.17
2013-6-10,89,76,70,78,73,68,99,90,66,0.00,40.00,7,2,12,3.46
2013-6-11,97,81,70,80,74,70,99,81,47,0.00,40.00,5,2,10,0.01
2013-6-12,97,82,69,79,73,68,99,79,45,0.00,40.00,5,2,11,0.00
2013-6-13,96,84,73,79,74,69,98,75,43,0.00,40.00,7,2,15,0.00
2013-6-14,96,83,72,77,72,67,95,72,39,0.00,40.00,4,2,12,0.00
2013-6-15,95,80,66,73,69,65,98,73,41,0.00,40.00,4,2,10,0.00
2013-6-16,94,81,70,77,73,69,99,81,53,0.00,40.00,4,1,12,0.00
2013-6-17,91,82,75,77,74,71,98,79,53,0.00,40.00,7,3,14,0.00
2013-6-18,92,83,74,75,72,69,97,72,50,0.00,40.00,7,3,16,0.00
2013-6-19,90,79,69,76,72,68,98,82,60,0.00,40.00,3,1,9,0.00
2013-6-20,93,79,70,77,71,69,99,82,51,0.00,40.00,3,1,9,0.00
2013-6-22,91,82,72,75,72,68,97,73,51,0.00,40.00,5,2,12,0.02
2013-6-23,92,77,69,78,72,69,99,86,55,0.00,40.00,4,1,11,0.00
2013-6-24,89,78,71,78,73,70,99,87,59,0.00,40.00,4,1,11,0.76
2013-6-25,92,80,68,79,72,68,99,79,54,0.00,40.00,5,1,10,0.01
2013-6-26,94,81,71,82,74,70,99,82,51,0.00,40.00,4,2,10,0.43
2013-6-27,96,84,73,79,75,72,99,79,48,0.00,40.00,5,2,11,0.01
2013-6-28,97,85,76,79,76,72,98,77,50,0.00,40.00,6,3,14,0.00
2013-6-29,94,82,73,76,73,70,95,75,52,0.00,40.00,6,3,13,0.00
2013-6-30,96,80,69,76,68,59,99,73,30,0.00,40.00,4,1,12,0.00
2013-7-1,93,78,65,71,66,62,99,73,36,0.00,40.00,5,1,13,0.00
2013-7-2,91,77,65,73,68,64,99,77,45,0.00,40.00,4,1,10,0.00
2013-7-3,89,75,71,76,72,66,98,91,64,0.00,40.00,4,1,10,0.60
2013-7-4,90,78,71,75,72,69,99,85,53,0.00,40.00,5,2,13,0.05
2013-7-5,77,74,72,76,73,71,99,98,94,0.00,40.00,6,2,14,1.27
2013-7-6,79,73,71,75,73,71,99,97,84,0.00,40.00,3,1,7,2.16
2013-7-7,81,76,73,77,75,72,99,98,84,0.00,40.00,3,1,9,2.11
2013-7-8,89,76,72,77,73,71,99,94,64,0.00,40.00,4,1,10,0.89
2013-7-9,93,81,70,79,73,70,99,81,55,0.00,40.00,5,2,11,0.03
2013-7-10,89,76,72,78,72,-100,99,91,57,0.00,40.00,4,2,30,0.51
2013-7-11,85,76,72,77,74,71,99,93,74,0.00,40.00,4,2,12,0.57
2013-7-12,94,77,70,76,71,69,99,86,48,0.00,40.00,5,1,11,1.01
2013-7-13,93,76,68,77,71,68,99,89,51,0.00,40.00,3,1,11,1.53
2013-7-14,92,79,68,75,71,68,99,80,55,0.00,40.00,4,1,9,0.02
2013-7-15,90,77,68,77,72,68,99,87,58,0.00,40.00,4,1,12,0.16
2013-7-16,88,80,72,79,75,71,98,88,67,0.00,40.00,4,2,11,0.19
2013-7-17,93,80,70,76,72,70,99,81,49,0.00,40.00,4,1,10,0.04
2013-7-18,93,78,70,77,73,70,99,87,52,0.00,40.00,4,1,11,0.19
2013-7-19,88,76,68,76,72,66,99,89,64,0.00,40.00,4,1,10,0.46
2013-7-20,88,77,72,79,74,72,99,91,67,0.00,40.00,4,1,10,0.60
2013-7-21,88,77,72,77,74,71,99,90,67,0.00,40.00,7,2,21,0.87
2013-7-22,85,75,71,80,73,70,99,94,73,0.00,40.00,6,2,16,0.53
2013-7-23,92,82,72,79,76,72,99,83,57,0.00,40.00,8,3,15,0.03
2013-7-24,92,82,76,78,75,71,96,80,51,0.00,40.00,6,3,17,0.03
2013-7-25,95,80,70,76,73,69,99,80,49,0.00,40.00,5,2,17,0.21
2013-7-26,96,80,70,74,71,66,99,79,38,0.00,40.00,4,1,11,0.01
2013-7-27,83,76,71,76,74,70,99,93,79,0.00,40.00,3,1,14,0.31
2013-7-28,90,80,73,76,74,73,99,84,62,0.00,40.00,5,2,10,0.11
2013-7-29,94,81,72,79,75,72,99,84,52,0.00,40.00,4,1,10,0.00
2013-7-30,94,81,72,80,76,72,99,85,53,0.00,40.00,4,1,10,0.11
2013-7-31,94,81,73,79,76,72,99,86,51,0.00,40.00,4,1,15,0.11
2013-8-1,93,79,73,79,75,72,99,88,56,0.00,40.00,5,2,13,0.63
2013-8-2,96,80,70,78,73,70,99,82,48,0.00,40.00,3,1,7,0.01
2013-8-3,97,82,71,78,74,70,99,80,42,0.00,40.00,3,1,8,0.00
2013-8-4,98,83,73,80,75,71,99,80,47,0.00,40.00,4,1,11,0.00
2013-8-5,97,78,73,77,74,71,99,88,49,0.00,40.00,3,1,15,0.01
2013-8-6,98,81,71,80,74,71,99,82,44,0.00,40.00,5,2,15,1.09
2013-8-7,96,80,72,82,76,72,99,87,51,0.00,40.00,5,1,13,1.08
2013-8-8,94,83,74,82,76,73,99,83,54,0.00,40.00,5,2,10,0.07
2013-8-9,90,80,75,82,76,73,99,88,67,0.00,40.00,4,1,10,0.39
2013-8-10,94,81,72,80,75,72,99,85,57,0.00,40.00,4,1,9,0.11
2013-8-11,94,80,72,79,75,72,99,87,59,0.00,40.00,2,1,9,0.02
2013-8-12,87,80,73,80,76,73,99,89,70,0.00,40.00,4,1,11,0.01
2013-8-13,92,77,73,81,73,-100,99,90,56,0.00,40.00,6,2,12,1.59
2013-8-14,81,74,72,78,71,-100,99,94,75,0.00,40.00,5,2,15,0.07
2013-8-15,90,74,71,75,63,-100,99,83,54,0.00,40.00,4,1,10,0.01
2013-8-16,90,75,70,76,68,-100,99,86,58,0.00,40.00,3,1,9,0.45
2013-8-17,78,73,71,76,70,-100,99,93,83,0.00,40.00,3,1,7,0.46
2013-8-18,84,74,70,79,73,70,99,97,79,0.00,40.00,4,2,12,0.85
2013-8-19,91,76,69,77,66,-100,99,87,55,0.00,40.00,5,1,10,0.01
2013-8-20,90,76,69,79,71,-100,99,90,58,0.00,40.00,3,1,6,0.70
2013-8-21,93,78,72,81,74,72,99,90,58,0.00,40.00,3,1,7,0.02
2013-8-22,93,79,70,77,73,70,99,85,55,0.00,40.00,4,1,13,0.31
2013-8-23,86,77,71,77,73,71,99,89,65,0.00,40.00,4,1,11,0.31
2013-8-24,83,75,71,77,72,-100,99,92,79,0.00,40.00,3,1,7,0.22
2013-8-25,86,76,71,77,73,71,99,89,69,0.00,40.00,4,2,10,0.11
2013-8-26,91,78,70,74,70,64,99,78,43,0.00,40.00,4,1,9,0.01
2013-8-27,89,72,63,68,66,63,99,84,42,0.00,40.00,4,1,9,0.00
2013-8-28,93,83,70,72,70,66,98,67,43,0.00,40.00,3,1,7,0.00
2013-8-29,96,78,65,71,68,64,99,76,39,0.00,40.00,4,1,7,0.00
2013-8-30,96,78,68,78,71,68,99,82,44,0.00,40.00,3,1,8,0.00
2013-8-31,96,80,70,76,71,-100,99,79,48,0.00,40.00,4,1,9,0.00
2013-9-1,92,81,72,78,74,71,99,83,54,0.00,40.00,4,1,9,0.00
2013-9-2,93,81,74,79,75,73,99,85,54,0.00,40.00,4,1,10,0.01
2013-9-3,93,79,71,81,75,70,99,87,58,0.00,40.00,5,1,12,0.49
2013-9-4,94,78,69,79,74,69,99,89,56,0.00,40.00,5,1,12,1.07
2013-9-5,93,79,70,80,73,69,99,84,51,0.00,40.00,4,1,10,0.36
2013-9-6,95,81,71,77,73,70,99,81,48,0.00,40.00,3,1,7,0.00
2013-9-7,96,78,69,74,68,-100,99,80,44,0.00,40.00,3,1,8,0.00
2013-9-8,94,79,68,77,70,67,99,79,42,0.00,40.00,5,1,10,0.00
2013-9-9,95,79,68,75,70,68,99,78,45,0.00,40.00,4,1,9,0.00
2013-9-10,94,79,70,77,71,69,99,79,46,0.00,40.00,5,1,12,0.00
2013-9-11,94,80,69,76,70,67,99,78,43,0.00,40.00,4,1,11,0.00
2013-9-12,96,79,67,73,70,66,99,79,40,0.00,40.00,4,1,8,0.00
2013-9-13,96,79,68,80,70,65,99,80,37,0.00,40.00,3,1,7,0.00
2013-9-14,90,76,69,73,67,-100,97,76,44,0.00,40.00,4,1,11,0.00
2013-9-15,95,76,63,74,68,62,99,82,48,0.00,40.00,3,1,7,0.00
2013-9-16,96,80,69,77,71,68,99,80,41,0.00,40.00,4,1,11,1.13
2013-9-17,95,79,69,79,72,68,99,82,46,0.00,40.00,4,1,9,1.13
2013-9-18,74,72,71,73,71,70,98,98,97,0.00,40.00,2,1,5,0.01
2013-9-19,90,78,71,75,72,68,99,84,56,0.00,40.00,5,2,13,0.00
2013-9-20,90,78,69,79,73,69,99,87,59,0.00,40.00,5,2,13,0.26
2013-9-21,78,74,70,76,72,-100,99,96,92,0.00,40.00,4,1,10,0.54
2013-9-22,82,72,67,69,67,64,99,86,58,0.00,40.00,4,2,10,0.09
2013-9-23,89,74,63,76,69,62,98,85,58,0.00,40.00,3,1,9,0.21
2013-9-24,88,77,72,79,74,71,99,92,66,0.00,40.00,5,2,12,0.32
2013-9-25,92,76,69,74,71,68,99,87,48,0.00,40.00,3,1,8,0.05
2013-9-26,93,76,65,72,67,61,99,79,38,0.00,40.00,3,1,9,0.00
2013-9-27,88,75,66,69,66,64,99,79,49,0.00,40.00,4,1,9,0.00
2013-9-28,89,72,59,67,61,-100,99,77,37,0.00,40.00,3,1,9,0.00
2013-9-29,84,72,61,69,65,61,99,82,50,0.00,40.00,4,1,9,0.00
2013-9-30,87,73,67,71,68,66,98,87,55,0.00,40.00,4,1,9,0.04
2013-10-1,82,73,70,72,70,69,97,91,73,0.00,40.00,1,0,2,0.00
2013-10-2,86,74,70,76,72,69,99,92,68,0.00,40.00,3,1,10,0.06
2013-10-3,90,77,69,78,72,69,99,87,56,0.00,40.00,5,2,15,0.14
2013-10-4,88,78,69,79,72,69,99,86,60,0.00,40.00,4,1,12,0.14
2013-10-5,90,78,71,80,72,67,99,84,51,0.00,40.00,5,2,13,0.00
2013-10-6,83,74,68,76,72,59,99,94,75,0.00,40.00,3,1,10,0.67
2013-10-7,80,67,55,59,54,49,98,67,36,0.00,40.00,4,2,12,0.05
2013-10-8,81,62,51,61,55,50,99,82,42,0.00,40.00,4,1,10,0.00
2013-10-9,81,68,57,72,64,57,99,88,65,0.00,40.00,3,1,9,0.00
2013-10-10,85,70,63,71,66,62,99,87,53,0.00,40.00,4,1,10,0.00
2013-10-11,87,71,59,72,64,58,99,84,48,0.00,40.00,3,1,8,0.00
2013-10-12,88,72,61,72,62,-100,99,79,46,0.00,40.00,5,2,10,0.00
2013-10-13,90,74,64,75,67,63,99,83,48,0.00,40.00,4,1,8,0.00
2013-10-14,88,72,63,69,64,59,99,79,38,0.00,40.00,4,1,9,0.00
2013-10-15,87,71,60,69,64,60,99,84,46,0.00,40.00,3,1,8,0.00
2013-10-16,87,72,61,71,65,60,99,81,47,0.00,40.00,4,1,12,0.00
2013-10-17,84,74,65,74,69,61,96,83,62,0.00,40.00,6,2,14,0.01
2013-10-18,79,68,61,63,60,56,97,78,49,0.00,40.00,4,2,10,0.01
2013-10-19,68,62,57,64,59,-100,98,92,82,0.00,40.00,3,1,9,0.36
2013-10-20,76,62,53,59,55,52,98,83,49,0.00,40.00,4,1,9,0.07
2013-10-21,73,62,54,62,58,53,98,87,59,0.00,40.00,3,1,9,0.00
2013-10-22,83,67,58,63,58,51,97,79,33,0.00,40.00,4,1,10,0.00
2013-10-23,78,60,48,55,49,41,98,73,28,0.00,40.00,5,2,12,0.00
2013-10-24,79,58,41,54,47,40,98,76,31,0.00,40.00,5,1,10,0.00
2013-10-25,70,56,44,52,44,37,98,72,30,0.00,40.00,5,2,12,0.00
2013-10-26,76,52,38,49,39,-100,97,73,27,0.00,40.00,3,1,12,0.00
2013-10-27,77,58,42,62,51,41,98,83,41,0.00,40.00,5,1,16,0.01
2013-10-28,82,63,51,65,55,-100,98,82,49,0.00,40.00,5,1,10,0.01
2013-10-29,81,64,52,68,58,51,98,85,51,0.00,40.00,4,1,11,0.01
2013-10-30,81,67,55,72,62,54,98,88,63,0.00,40.00,4,2,10,0.00
2013-10-31,81,74,64,71,68,63,98,84,65,0.00,40.00,7,4,17,0.27
2013-11-1,81,70,53,70,63,51,98,84,40,0.00,40.00,4,2,18,0.32
2013-11-2,78,60,48,55,47,-100,98,72,34,0.00,40.00,7,2,58,0.01
2013-11-3,71,52,40,48,43,39,97,77,35,0.00,40.00,4,1,149,0.00
2013-11-4,76,56,42,55,50,41,98,81,48,0.00,40.00,6,1,12,0.00
2013-11-5,76,64,56,64,55,50,97,75,54,0.00,40.00,9,2,163,0.00
2013-11-6,79,65,53,68,61,52,98,88,66,0.00,40.00,5,2,50,0.00
2013-11-7,68,59,47,67,53,38,98,82,49,0.00,40.00,10,3,39,0.08
2013-11-8,69,50,36,41,36,32,95,66,25,0.00,40.00,34,5,64,0.06
2013-11-9,76,54,37,57,48,36,98,83,48,0.00,40.00,12,2,89,0.00
2013-11-10,80,61,50,57,52,47,98,78,36,0.00,40.00,7,2,142,0.00
2013-11-11,80,58,44,54,48,43,98,77,33,0.00,40.00,1,0,16,0.00
2013-11-12,74,54,42,52,44,24,98,73,42,0.00,40.00,7,3,30,0.00
2013-11-13,58,40,31,29,24,19,91,55,24,0.00,40.00,4,2,15,0.00
2013-11-14,67,48,28,50,38,26,93,72,42,0.00,40.00,7,2,65,0.00
2013-11-15,71,60,54,67,57,47,98,90,71,0.00,40.00,4,2,65,0.48
2013-11-16,73,66,60,69,63,-100,98,94,85,0.00,40.00,3,2,39,0.06
2013-11-17,80,73,67,72,70,66,98,93,74,0.00,40.00,6,3,185,0.09
2013-11-18,74,67,55,72,62,39,98,85,53,0.00,40.00,3,2,41,0.33
2013-11-19,68,52,41,43,38,33,92,64,30,0.00,40.00,6,2,27,0.01
2013-11-20,75,52,36,55,45,35,97,81,46,0.00,40.00,5,1,44,0.00
2013-11-21,69,60,49,63,57,48,98,91,72,0.00,40.00,5,2,34,0.00
2013-11-22,78,68,60,70,65,60,100,91,74,0.00,40.00,3,2,9,0.03
2013-11-23,65,60,49,64,57,41,100,91,74,0.00,40.00,5,3,14,0.03
2013-11-24,56,46,39,41,28,22,76,53,28,0.00,40.00,5,3,16,0.00
2013-11-25,57,47,35,57,41,25,100,79,62,0.00,40.00,6,3,12,0.31
2013-11-26,66,51,43,66,50,43,100,97,82,0.00,40.00,5,4,16,2.13
2013-11-27,52,40,27,42,32,24,100,76,37,0.00,40.00,5,3,15,0.31
2013-11-28,52,34,24,32,26,22,99,79,32,0.00,40.00,3,1,9,0.00
2013-11-29,64,39,25,36,29,23,100,76,21,0.00,40.00,4,1,10,0.00
2013-11-30,72,43,29,47,35,-100,100,83,32,0.00,40.00,3,1,9,0.00
2013-12-1,72,50,35,53,44,35,100,85,38,0.00,40.00,5,1,12,0.00
2013-12-2,75,57,44,60,51,44,100,84,45,0.00,40.00,6,2,13,0.00
2013-12-3,73,66,56,70,64,56,100,94,77,0.00,40.00,7,4,20,0.28
2013-12-4,79,72,68,72,70,67,100,93,77,0.00,40.00,7,4,15,0.20
2013-12-5,77,74,71,74,73,71,100,96,88,0.00,40.00,7,4,16,0.04
2013-12-6,78,71,50,73,69,48,100,93,82,0.00,40.00,8,5,17,0.93
2013-12-7,48,41,40,48,40,-100,100,97,93,0.00,40.00,4,3,13,1.05
2013-12-8,56,49,41,55,48,41,100,99,94,0.00,40.00,3,2,7,0.01
2013-12-9,68,58,53,64,45,-100,100,86,74,0.00,40.00,4,2,8,0.09
2013-12-10,57,38,35,55,-2,-100,94,56,61,0.00,40.00,4,2,12,0.09
2013-12-11,63,53,34,47,41,34,100,66,38,0.00,40.00,4,2,10,0.01
2013-12-12,60,44,30,40,30,23,91,62,26,0.00,40.00,5,2,15,0.01
2013-12-13,63,45,28,51,38,26,98,80,54,0.00,40.00,4,2,10,0.00
2013-12-14,76,62,51,67,58,-100,100,90,69,0.00,40.00,7,3,15,0.09
2013-12-15,54,43,30,46,36,30,99,79,51,0.00,40.00,4,3,13,0.09
2013-12-16,65,38,27,41,33,27,100,85,28,0.00,40.00,4,1,9,0.00
2013-12-17,69,42,29,41,34,29,100,82,27,0.00,40.00,4,1,13,0.00
2013-12-18,72,46,34,43,37,34,100,79,28,0.00,40.00,4,1,10,0.00
2013-12-19,72,51,33,57,46,33,100,87,56,0.00,40.00,5,2,12,0.00
2013-12-20,74,65,53,69,63,53,100,93,78,0.00,40.00,5,3,13,0.00
2013-12-21,76,72,70,72,69,-100,98,93,88,0.00,40.00,8,6,19,0.02
2013-12-22,74,60,55,72,60,54,100,99,94,0.00,40.00,8,3,20,4.14
2013-12-23,54,47,36,54,43,31,100,88,75,0.00,40.00,5,3,13,0.50
2013-12-24,55,34,29,32,2,-100,99,57,35,0.00,40.00,4,2,13,0.00
2013-12-25,50,37,25,34,28,24,98,75,38,0.00,40.00,4,1,6,0.00
2013-12-26,55,42,31,40,34,29,98,76,43,0.00,40.00,3,2,9,0.00
2013-12-27,62,48,35,40,35,30,100,66,30,0.00,40.00,5,2,11,0.00
2013-12-28,49,47,45,49,44,-100,100,95,67,0.00,40.00,4,2,9,1.70
2013-12-29,61,49,41,50,46,39,100,92,54,0.00,40.00,3,2,8,0.07
2013-12-30,58,47,38,54,45,38,100,94,71,0.00,40.00,3,1,5,0.01
2013-12-31,48,10,48,48,-69,-100,100,21,100,0.00,40.00,2,2,0,0.00
2014-1-1,59,50,52,55,28,-100,100,78,87,0.00,40.00,3,2,5,0.05
2014-1-2,61,45,35,58,28,-100,100,63,52,0.00,40.00,5,4,17,0.78